sensor_id;sensor_type;location;lat;lon;timestamp;P1;durP1;ratioP1;P2;durP2;ratioP2
39566;SDS011;25241;41.978;14.664;2024-02-15T06:42:13;2.25;;;0.70;;
39566;SDS011;25241;41.978;14.664;2024-02-15T07:48:05;3.72;;;1.15;;
39566;SDS011;25241;41.978;14.664;2024-02-15T07:50:33;2.60;;;0.90;;
39566;SDS011;25241;41.978;14.664;2024-02-15T07:52:58;2.78;;;1.00;;
39566;SDS011;25241;41.978;14.664;2024-02-15T07:55:26;2.28;;;0.80;;
39566;SDS011;25241;41.978;14.664;2024-02-15T07:57:53;2.90;;;0.88;;
39566;SDS011;25241;41.978;14.664;2024-02-15T08:00:21;1.42;;;0.80;;
39566;SDS011;25241;41.978;14.664;2024-02-15T08:02:46;2.22;;;0.80;;
39566;SDS011;25241;41.978;14.664;2024-02-15T08:05:12;0.93;;;0.50;;
39566;SDS011;25241;41.978;14.664;2024-02-15T08:17:45;0.32;;;0.30;;
39566;SDS011;25241;41.978;14.664;2024-02-15T08:20:11;1.48;;;0.43;;
39566;SDS011;25241;41.978;14.664;2024-02-15T08:22:38;0.90;;;0.47;;
39566;SDS011;25241;41.978;14.664;2024-02-15T08:25:13;1.02;;;0.70;;
39566;SDS011;25241;41.978;14.664;2024-02-15T08:27:43;0.45;;;0.43;;
39566;SDS011;25241;41.978;14.664;2024-02-15T08:30:12;0.77;;;0.50;;
39566;SDS011;25241;41.978;14.664;2024-02-15T08:32:41;2.10;;;0.77;;
39566;SDS011;25241;41.978;14.664;2024-02-15T08:35:07;1.33;;;0.40;;
39566;SDS011;25241;41.978;14.664;2024-02-15T08:37:36;1.27;;;0.35;;
39566;SDS011;25241;41.978;14.664;2024-02-15T08:40:07;0.22;;;0.22;;
39566;SDS011;25241;41.978;14.664;2024-02-15T08:42:42;0.40;;;0.40;;
39566;SDS011;25241;41.978;14.664;2024-02-15T08:45:08;0.80;;;0.52;;
39566;SDS011;25241;41.978;14.664;2024-02-15T08:47:39;0.40;;;0.38;;
39566;SDS011;25241;41.978;14.664;2024-02-15T08:50:06;2.38;;;0.30;;
39566;SDS011;25241;41.978;14.664;2024-02-15T08:52:34;1.58;;;0.60;;
39566;SDS011;25241;41.978;14.664;2024-02-15T08:55:06;1.20;;;0.80;;
39566;SDS011;25241;41.978;14.664;2024-02-15T08:57:34;0.73;;;0.50;;
39566;SDS011;25241;41.978;14.664;2024-02-15T09:00:02;0.22;;;0.20;;
39566;SDS011;25241;41.978;14.664;2024-02-15T09:05:16;0.40;;;0.35;;
39566;SDS011;25241;41.978;14.664;2024-02-15T09:07:42;0.30;;;0.30;;
39566;SDS011;25241;41.978;14.664;2024-02-15T09:10:09;1.55;;;1.33;;
39566;SDS011;25241;41.978;14.664;2024-02-15T09:15:07;2.50;;;0.95;;
39566;SDS011;25241;41.978;14.664;2024-02-15T09:17:37;0.75;;;0.40;;
39566;SDS011;25241;41.978;14.664;2024-02-15T09:20:09;0.70;;;0.47;;
39566;SDS011;25241;41.978;14.664;2024-02-15T09:22:47;0.55;;;0.50;;
39566;SDS011;25241;41.978;14.664;2024-02-15T09:25:16;0.90;;;0.43;;
39566;SDS011;25241;41.978;14.664;2024-02-15T09:27:42;5.28;;;0.50;;
39566;SDS011;25241;41.978;14.664;2024-02-15T09:30:10;1.15;;;0.32;;
39566;SDS011;25241;41.978;14.664;2024-02-15T09:32:37;1.45;;;0.50;;
39566;SDS011;25241;41.978;14.664;2024-02-15T09:35:05;1.83;;;0.57;;
39566;SDS011;25241;41.978;14.664;2024-02-15T09:40:00;1.27;;;0.80;;
39566;SDS011;25241;41.978;14.664;2024-02-15T09:42:31;1.00;;;0.50;;
39566;SDS011;25241;41.978;14.664;2024-02-15T09:45:00;5.15;;;1.02;;
39566;SDS011;25241;41.978;14.664;2024-02-15T09:47:29;1.75;;;0.60;;
39566;SDS011;25241;41.978;14.664;2024-02-15T09:50:08;1.30;;;0.50;;
39566;SDS011;25241;41.978;14.664;2024-02-15T09:52:42;1.90;;;0.77;;
39566;SDS011;25241;41.978;14.664;2024-02-15T09:55:09;2.58;;;0.65;;
39566;SDS011;25241;41.978;14.664;2024-02-15T10:00:04;1.42;;;0.80;;
39566;SDS011;25241;41.978;14.664;2024-02-15T10:02:33;2.70;;;0.73;;
39566;SDS011;25241;41.978;14.664;2024-02-15T10:05:01;2.33;;;0.55;;
39566;SDS011;25241;41.978;14.664;2024-02-15T10:07:30;2.65;;;0.52;;
39566;SDS011;25241;41.978;14.664;2024-02-15T10:09:55;0.80;;;0.43;;
39566;SDS011;25241;41.978;14.664;2024-02-15T10:12:24;2.00;;;0.60;;
39566;SDS011;25241;41.978;14.664;2024-02-15T10:15:03;1.15;;;0.50;;
39566;SDS011;25241;41.978;14.664;2024-02-15T10:17:35;1.23;;;0.80;;
39566;SDS011;25241;41.978;14.664;2024-02-15T10:20:05;0.77;;;0.52;;
39566;SDS011;25241;41.978;14.664;2024-02-15T10:22:33;6.05;;;0.60;;
39566;SDS011;25241;41.978;14.664;2024-02-15T10:25:20;1.85;;;0.68;;
39566;SDS011;25241;41.978;14.664;2024-02-15T10:27:47;2.08;;;0.82;;
39566;SDS011;25241;41.978;14.664;2024-02-15T10:30:19;1.55;;;0.73;;
39566;SDS011;25241;41.978;14.664;2024-02-15T10:32:48;1.65;;;1.00;;
39566;SDS011;25241;41.978;14.664;2024-02-15T10:35:22;2.08;;;1.15;;
39566;SDS011;25241;41.978;14.664;2024-02-15T10:37:48;2.00;;;1.10;;
39566;SDS011;25241;41.978;14.664;2024-02-15T10:40:18;1.85;;;0.80;;
39566;SDS011;25241;41.978;14.664;2024-02-15T10:45:11;1.25;;;0.80;;
39566;SDS011;25241;41.978;14.664;2024-02-15T10:47:37;2.85;;;1.30;;
39566;SDS011;25241;41.978;14.664;2024-02-15T10:50:07;2.17;;;1.10;;
39566;SDS011;25241;41.978;14.664;2024-02-15T10:52:33;1.27;;;0.73;;
39566;SDS011;25241;41.978;14.664;2024-02-15T10:55:05;4.53;;;0.93;;
39566;SDS011;25241;41.978;14.664;2024-02-15T10:57:37;3.38;;;1.27;;
39566;SDS011;25241;41.978;14.664;2024-02-15T11:00:06;1.85;;;1.10;;
39566;SDS011;25241;41.978;14.664;2024-02-15T11:02:42;3.28;;;1.40;;
39566;SDS011;25241;41.978;14.664;2024-02-15T11:05:40;1.23;;;0.52;;
39566;SDS011;25241;41.978;14.664;2024-02-15T11:08:08;1.70;;;0.90;;
39566;SDS011;25241;41.978;14.664;2024-02-15T11:10:34;1.48;;;0.95;;
39566;SDS011;25241;41.978;14.664;2024-02-15T11:13:00;0.73;;;0.70;;
39566;SDS011;25241;41.978;14.664;2024-02-15T11:18:03;2.75;;;0.70;;
39566;SDS011;25241;41.978;14.664;2024-02-15T11:23:00;2.25;;;1.23;;
39566;SDS011;25241;41.978;14.664;2024-02-15T11:25:40;4.28;;;2.28;;
39566;SDS011;25241;41.978;14.664;2024-02-15T11:30:54;0.98;;;0.80;;
39566;SDS011;25241;41.978;14.664;2024-02-15T11:38:28;0.82;;;0.50;;
39566;SDS011;25241;41.978;14.664;2024-02-15T11:46:15;4.60;;;1.70;;
39566;SDS011;25241;41.978;14.664;2024-02-15T11:48:44;2.80;;;1.17;;
39566;SDS011;25241;41.978;14.664;2024-02-15T11:54:03;4.95;;;2.65;;
39566;SDS011;25241;41.978;14.664;2024-02-15T11:56:53;4.03;;;2.20;;
39566;SDS011;25241;41.978;14.664;2024-02-15T11:59:43;2.90;;;1.15;;
39566;SDS011;25241;41.978;14.664;2024-02-15T12:02:40;2.20;;;1.30;;
39566;SDS011;25241;41.978;14.664;2024-02-15T12:05:24;4.25;;;0.80;;
39566;SDS011;25241;41.978;14.664;2024-02-15T12:08:11;3.03;;;1.38;;
39566;SDS011;25241;41.978;14.664;2024-02-15T12:13:42;1.88;;;1.23;;
39566;SDS011;25241;41.978;14.664;2024-02-15T12:16:29;1.85;;;0.90;;
39566;SDS011;25241;41.978;14.664;2024-02-15T17:26:51;9.30;;;3.92;;
39566;SDS011;25241;41.978;14.664;2024-02-15T17:29:17;4.95;;;2.90;;
39566;SDS011;25241;41.978;14.664;2024-02-15T17:31:45;6.57;;;3.70;;
39566;SDS011;25241;41.978;14.664;2024-02-15T17:34:14;6.90;;;3.72;;
39566;SDS011;25241;41.978;14.664;2024-02-15T17:36:42;8.82;;;2.75;;
39566;SDS011;25241;41.978;14.664;2024-02-15T17:39:11;18.50;;;6.28;;
39566;SDS011;25241;41.978;14.664;2024-02-15T17:41:39;27.60;;;9.00;;
39566;SDS011;25241;41.978;14.664;2024-02-15T17:44:06;24.73;;;10.15;;
39566;SDS011;25241;41.978;14.664;2024-02-15T17:46:35;19.38;;;8.55;;
39566;SDS011;25241;41.978;14.664;2024-02-15T17:49:04;20.48;;;8.35;;
39566;SDS011;25241;41.978;14.664;2024-02-15T17:51:32;17.40;;;6.57;;
39566;SDS011;25241;41.978;14.664;2024-02-15T17:53:58;12.32;;;4.93;;
39566;SDS011;25241;41.978;14.664;2024-02-15T17:56:24;12.40;;;5.68;;
39566;SDS011;25241;41.978;14.664;2024-02-15T17:58:50;24.42;;;8.55;;
39566;SDS011;25241;41.978;14.664;2024-02-15T18:01:16;19.23;;;6.28;;
39566;SDS011;25241;41.978;14.664;2024-02-15T18:03:44;17.38;;;5.60;;
39566;SDS011;25241;41.978;14.664;2024-02-15T18:06:10;16.40;;;5.93;;
39566;SDS011;25241;41.978;14.664;2024-02-15T18:08:36;11.85;;;5.28;;
39566;SDS011;25241;41.978;14.664;2024-02-15T18:11:02;12.10;;;4.88;;
39566;SDS011;25241;41.978;14.664;2024-02-15T18:13:30;8.45;;;4.53;;
39566;SDS011;25241;41.978;14.664;2024-02-15T18:15:56;10.15;;;5.07;;
39566;SDS011;25241;41.978;14.664;2024-02-15T18:18:24;7.68;;;3.08;;
39566;SDS011;25241;41.978;14.664;2024-02-15T18:20:56;9.35;;;3.78;;
39566;SDS011;25241;41.978;14.664;2024-02-15T18:23:21;12.30;;;3.22;;
39566;SDS011;25241;41.978;14.664;2024-02-15T18:25:47;7.93;;;3.15;;
39566;SDS011;25241;41.978;14.664;2024-02-15T18:28:12;12.77;;;3.25;;
39566;SDS011;25241;41.978;14.664;2024-02-15T18:30:39;12.90;;;5.47;;
39566;SDS011;25241;41.978;14.664;2024-02-15T18:33:12;17.67;;;6.55;;
39566;SDS011;25241;41.978;14.664;2024-02-15T18:35:40;8.95;;;3.80;;
39566;SDS011;25241;41.978;14.664;2024-02-15T18:38:11;14.55;;;5.32;;
39566;SDS011;25241;41.978;14.664;2024-02-15T18:40:37;14.63;;;6.18;;
39566;SDS011;25241;41.978;14.664;2024-02-15T18:43:05;9.30;;;3.72;;
39566;SDS011;25241;41.978;14.664;2024-02-15T18:45:32;14.32;;;5.40;;
39566;SDS011;25241;41.978;14.664;2024-02-15T18:47:59;15.75;;;5.03;;
39566;SDS011;25241;41.978;14.664;2024-02-15T18:50:26;17.13;;;5.43;;
39566;SDS011;25241;41.978;14.664;2024-02-15T18:52:54;12.85;;;5.60;;
39566;SDS011;25241;41.978;14.664;2024-02-15T18:55:21;12.73;;;4.10;;
39566;SDS011;25241;41.978;14.664;2024-02-15T18:57:46;13.38;;;4.28;;
39566;SDS011;25241;41.978;14.664;2024-02-15T19:00:13;8.98;;;3.92;;
39566;SDS011;25241;41.978;14.664;2024-02-15T19:02:41;14.60;;;5.00;;
39566;SDS011;25241;41.978;14.664;2024-02-15T19:05:07;12.75;;;5.85;;
39566;SDS011;25241;41.978;14.664;2024-02-15T19:07:45;22.33;;;7.00;;
39566;SDS011;25241;41.978;14.664;2024-02-15T19:10:14;18.63;;;7.50;;
39566;SDS011;25241;41.978;14.664;2024-02-15T19:12:40;11.88;;;5.60;;
39566;SDS011;25241;41.978;14.664;2024-02-15T19:15:09;16.80;;;6.80;;
39566;SDS011;25241;41.978;14.664;2024-02-15T19:17:40;22.02;;;7.00;;
39566;SDS011;25241;41.978;14.664;2024-02-15T19:20:06;23.05;;;9.65;;
39566;SDS011;25241;41.978;14.664;2024-02-15T19:22:37;17.50;;;6.75;;
39566;SDS011;25241;41.978;14.664;2024-02-15T19:25:05;11.73;;;5.18;;
39566;SDS011;25241;41.978;14.664;2024-02-15T19:27:34;14.35;;;5.18;;
39566;SDS011;25241;41.978;14.664;2024-02-15T19:29:59;20.65;;;5.95;;
39566;SDS011;25241;41.978;14.664;2024-02-15T19:32:27;24.08;;;8.57;;
39566;SDS011;25241;41.978;14.664;2024-02-15T19:34:56;27.30;;;9.57;;
39566;SDS011;25241;41.978;14.664;2024-02-15T19:37:27;21.08;;;6.55;;
39566;SDS011;25241;41.978;14.664;2024-02-15T19:39:58;9.68;;;3.85;;
